Flight Track Log - Related Links

Times and Time Zones

All times are in EDT time to prevent confusion due to time zone crossing. See the BOE4 flight status page for this flight to view local times or setup timezone preferences in your user account.

Time Position Orientation Groundspeed Altitude Reporting Facility
EDT Latitude Longitude Course Direction KTS MPH feet Rate Location/Type
Thu 08:31:37 PM 47.5456 -122.3210 328° Northwest 151 174 1,300  Level Seattle Center
Thu 08:32:20 PM 47.5761 -122.3490 335° Northwest 179 206 2,300 1,333 Climbing Seattle Center
Thu 08:32:40 PM 47.5967 -122.3630 299° West 230 265 2,700 1,082 Climbing Seattle Center
Thu 08:33:21 PM 47.6164 -122.4160 263° West 235 270 3,400 900 Climbing Seattle Center
Thu 08:33:40 PM 47.6136 -122.4500 265° West 263 303 3,600 1,855 Climbing Seattle Center
Thu 08:34:16 PM 47.6100 -122.5110 264° West 255 293 5,100 2,600 Climbing Seattle Center
Thu 08:34:40 PM 47.6069 -122.5570 268° West 264 304 6,200 2,357 Climbing Seattle Center
Thu 08:35:40 PM 47.6044 -122.6620 276° West 259 298 8,400 2,150 Climbing Seattle Center
Thu 08:36:40 PM 47.6122 -122.7670 300° West 264 304 10,500 2,150 Climbing Seattle Center
Thu 08:37:40 PM 47.6472 -122.8580 301° West 259 298 12,700 1,850 Climbing Seattle Center
Thu 08:38:40 PM 47.6825 -122.9460 300° West 254 292 14,200 1,800 Climbing Seattle Center
Thu 08:39:40 PM 47.7175 -123.0380 300° West 254 292 16,300 2,000 Climbing Seattle Center
Thu 08:40:40 PM 47.7522 -123.1290 299° West 259 298 18,200 1,900 Climbing Seattle Center
Thu 08:41:40 PM 47.7872 -123.2240 299° West 259 298 20,100 1,500 Climbing Seattle Center
Thu 08:42:40 PM 47.8256 -123.3280 299° West 271 312 21,200 1,350 Climbing Seattle Center
Thu 08:43:40 PM 47.8661 -123.4360 299° West 286 329 22,800 1,600 Climbing Seattle Center
Thu 08:44:40 PM 47.9044 -123.5410 298° West 309 356 24,400 3,600 Climbing Seattle Center
Thu 08:45:40 PM 47.9483 -123.6620 299° West 314 361 30,000 1,300 Climbing Seattle Center
Thu 08:46:40 PM 47.9922 -123.7800 298° West 314 361 27,000 -950 Descending Seattle Center
Thu 08:47:40 PM 48.0342 -123.8970 299° West 314 361 28,100 1,150 Climbing Seattle Center
Thu 08:48:40 PM 48.0797 -124.0190 299° West 319 367 29,300 950 Climbing Seattle Center
Thu 08:49:40 PM 48.1253 -124.1440 297° West 324 373 30,000 350 Climbing Seattle Center
Thu 08:50:40 PM 48.1683 -124.2720 263° West 336 387 30,000  Level Seattle Center
Thu 08:51:40 PM 48.1558 -124.4290 224° Southwest 356 410 30,000  Level Seattle Center
Thu 08:52:40 PM 48.0856 -124.5290 184° South 363 418 30,000  Level Seattle Center
Thu 08:53:40 PM 47.9433 -124.5440 157° South 365 420 30,000  Level Seattle Center
Thu 08:54:40 PM 47.8092 -124.4610 165° South 417 480 30,000  Level Seattle Center
Thu 08:55:40 PM 47.6697 -124.4060 166° South 477 549 30,000  Level Seattle Center
Thu 08:56:40 PM 47.5303 -124.3540 166° South 503 579 30,000  Level Seattle Center
Thu 08:57:40 PM 47.3967 -124.3030 168° South 511 588 30,000  Level Seattle Center
Thu 08:58:40 PM 47.2589 -124.2580 166° South 511 588 30,000  Level Seattle Center
Thu 08:59:40 PM 47.1192 -124.2070 168° South 511 588 30,000  Level Seattle Center
Thu 09:00:40 PM 46.9794 -124.1620 166° South 511 588 30,000  Level Seattle Center
Thu 09:01:40 PM 46.8417 -124.1120 167° South 516 594 30,000 50 Level Seattle Center
Thu 09:02:40 PM 46.7058 -124.0650 167° South 516 594 30,100  Climbing Seattle Center
Thu 09:03:40 PM 46.5681 -124.0180 166° South 511 588 30,000 -50 Descending Seattle Center
Thu 09:04:40 PM 46.4342 -123.9710 168° South 511 588 30,000  Level Seattle Center
Thu 09:05:40 PM 46.2961 -123.9280 168° South 506 582 30,000  Level Seattle Center
Thu 09:06:40 PM 46.1561 -123.8850 149° Southeast 506 582 30,000 50 Level Seattle Center
Thu 09:07:40 PM 46.0328 -123.7800 95° East 496 571 30,100 50 Climbing Seattle Center
Thu 09:08:40 PM 46.0219 -123.6030 77° East 420 483 30,100  Level Seattle Center
Thu 09:09:40 PM 46.0506 -123.4280 67° East 386 444 30,100  Level Seattle Center
Thu 09:10:40 PM 46.0972 -123.2670 89° East 397 457 30,100 50 Level Seattle Center
Thu 09:11:40 PM 46.1003 -123.0810 99° East 422 486 30,200 -50 Climbing Seattle Center
Thu 09:12:40 PM 46.0786 -122.8880 98° East 455 524 30,000 -100 Descending Seattle Center
Thu 09:13:40 PM 46.0606 -122.7020 99° East 466 536 30,000  Level Seattle Center
Thu 09:14:40 PM 46.0403 -122.5120 98° East 472 543 30,000  Level Seattle Center
Thu 09:15:40 PM 46.0214 -122.3260 99° East 472 543 30,000  Level Seattle Center
Thu 09:16:40 PM 46.0006 -122.1370 99° East 472 543 30,000  Level Seattle Center
Thu 09:17:40 PM 45.9792 -121.9450 93° East 472 543 30,000  Level Seattle Center
Thu 09:18:40 PM 45.9719 -121.7620 93° East 467 537 30,000  Level Seattle Center
Thu 09:19:40 PM 45.9644 -121.5800 95° East 467 537 30,000  Level Seattle Center
Thu 09:20:40 PM 45.9528 -121.3920 96° East 467 537 30,000  Level Seattle Center
Thu 09:21:40 PM 45.9386 -121.2030 99° East 467 537 30,000  Level Seattle Center
Thu 09:22:40 PM 45.9178 -121.0150 97° East 467 537 30,000  Level Seattle Center
Thu 09:23:40 PM 45.9008 -120.8260 98° East 467 537 30,000  Level Seattle Center
Thu 09:24:40 PM 45.8817 -120.6350 98° East 473 544 30,000  Level Seattle Center
Thu 09:25:40 PM 45.8619 -120.4380 99° East 484 557 30,000  Level Seattle Center
Thu 09:26:40 PM 45.8400 -120.2360 98° East 500 575 30,000  Level Seattle Center
Thu 09:27:40 PM 45.8200 -120.0390 99° East 505 581 30,000  Level Seattle Center
Thu 09:28:40 PM 45.7994 -119.8480 99° East 505 581 30,000  Level Seattle Center
Thu 09:29:40 PM 45.7783 -119.6520 99° East 500 575 30,000  Level Seattle Center
Thu 09:30:40 PM 45.7572 -119.4590 99° East 500 575 30,000  Level Seattle Center
Thu 09:31:40 PM 45.7358 -119.2650 99° East 500 575 30,000  Level Seattle Center
Thu 09:32:40 PM 45.7139 -119.0690 71° East 500 575 30,000  Level Seattle Center
Thu 09:33:40 PM 45.7522 -118.9110 30° Northeast 462 532 30,000  Level Seattle Center
Thu 09:34:40 PM 45.8475 -118.8320 21° North 374 430 30,000  Level Seattle Center
Thu 09:35:40 PM 45.9469 -118.7770 25° Northeast 359 413 30,000  Level Seattle Center
Thu 09:36:40 PM 46.0422 -118.7130 25° Northeast 365 420 30,000  Level Seattle Center
Thu 09:37:40 PM 46.1497 -118.6390 28° Northeast 378 435 30,000  Level Seattle Center
Thu 09:38:40 PM 46.2344 -118.5740 25° Northeast 378 435 30,000  Level Seattle Center
Thu 09:39:40 PM 46.3297 -118.5090 27° Northeast 378 435 30,000  Level Seattle Center
Thu 09:40:40 PM 46.4225 -118.4400 25° Northeast 378 435 30,000  Level Seattle Center
Thu 09:41:40 PM 46.5197 -118.3740 25° Northeast 378 435 30,000  Level Seattle Center
Thu 09:42:40 PM 46.6144 -118.3090 25° Northeast 378 435 30,000  Level Seattle Center
Thu 09:43:40 PM 46.7094 -118.2430 26° Northeast 378 435 30,000  Level Seattle Center
Thu 09:44:40 PM 46.8064 -118.1730 25° Northeast 378 435 30,000  Level Seattle Center
Thu 09:45:40 PM 46.9011 -118.1070 26° Northeast 378 435 30,000  Level Seattle Center
Thu 09:46:40 PM 46.9961 -118.0400 27° Northeast 378 435 30,000  Level Seattle Center
Thu 09:47:40 PM 47.0906 -117.9700 25° Northeast 378 435 30,000  Level Seattle Center
Thu 09:48:40 PM 47.1875 -117.9020 26° Northeast 378 435 30,000  Level Seattle Center
Thu 09:49:40 PM 47.2819 -117.8350 27° Northeast 378 435 30,000  Level Seattle Center
Thu 09:50:40 PM 47.3847 -117.7580 North 378 435 30,000  Level Seattle Center
Thu 09:51:40 PM 47.4825 -117.7540 309° West 353 406 30,000  Level Seattle Center
Thu 09:52:40 PM 47.5447 -117.8660 253° West 301 346 30,000  Level Seattle Center
Thu 09:53:40 PM 47.5100 -118.0290 222° Southwest 295 339 30,000  Level Seattle Center
Thu 09:54:40 PM 47.4119 -118.1610 247° West 358 412 30,000  Level Seattle Center
Thu 09:55:40 PM 47.3661 -118.3190 246° West 395 455 30,000  Level Seattle Center
Thu 09:56:40 PM 47.3181 -118.4790 248° West 418 481 30,000  Level Seattle Center
Thu 09:57:40 PM 47.2739 -118.6390 246° West 423 487 30,000 -900 Level Seattle Center
Thu 09:58:40 PM 47.2256 -118.7990 246° West 428 493 28,200 -2,050 Descending Seattle Center
Thu 09:59:40 PM 47.1728 -118.9740 246° West 445 512 25,900 -2,200 Descending Seattle Center
Thu 10:00:40 PM 47.1197 -119.1490 246° West 465 535 23,800 -1,900 Descending Seattle Center
Thu 10:01:40 PM 47.0642 -119.3320 248° West 482 555 22,100 -1,600 Descending Seattle Center
Thu 10:02:40 PM 47.0150 -119.5090 246° West 482 555 20,600 -1,700 Descending Seattle Center
Thu 10:03:40 PM 46.9631 -119.6820 248° West 477 549 18,700 -1,250 Descending Seattle Center
Thu 10:04:40 PM 46.9194 -119.8370 280° West 462 532 18,100 -300 Descending Seattle Center
Thu 10:05:40 PM 46.9358 -119.9710 288° West 367 422 18,100 -50 Level Seattle Center
Thu 10:06:40 PM 46.9608 -120.0810 297° West 335 386 18,000 -100 Descending Seattle Center
Thu 10:07:40 PM 46.9917 -120.1690 298° West 306 352 17,900 -100 Descending Seattle Center
Thu 10:08:40 PM 47.0144 -120.2330 300° West 237 273 17,800 -500 Descending Seattle Center
Thu 10:09:40 PM 47.0392 -120.2970 290° West 175 201 16,900 -850 Descending Seattle Center
Thu 10:10:40 PM 47.0533 -120.3550 298° West 155 178 16,100 -350 Descending Seattle Center
Thu 10:11:40 PM 47.0719 -120.4070 294° West 155 178 16,200 300 Climbing Seattle Center
Thu 10:12:40 PM 47.0922 -120.4740 295° West 161 185 16,700 500 Climbing Seattle Center
Thu 10:13:40 PM 47.1189 -120.5570 295° West 190 219 17,200 250 Climbing Seattle Center
Thu 10:14:40 PM 47.1494 -120.6550 295° West 232 267 17,200 -50 Level Seattle Center
Thu 10:15:40 PM 47.1819 -120.7590 297° West 267 307 17,100 -50 Descending Seattle Center
Thu 10:16:40 PM 47.2144 -120.8540 294° West 281 323 17,100  Level Seattle Center
Thu 10:17:40 PM 47.2447 -120.9530 294° West 281 323 17,100  Level Seattle Center
Thu 10:18:40 PM 47.2767 -121.0580 294° West 281 323 17,100  Level Seattle Center
Thu 10:19:40 PM 47.3069 -121.1590 295° West 281 323 17,100  Level Seattle Center
Thu 10:20:40 PM 47.3450 -121.2790 294° West 287 330 17,100  Level Seattle Center
Thu 10:21:40 PM 47.3769 -121.3870 294° West 287 330 17,100  Level Seattle Center
Thu 10:22:40 PM 47.4106 -121.4990 296° West 297 342 17,100  Level Seattle Center
Thu 10:23:40 PM 47.4464 -121.6100 294° West 297 342 17,100 -50 Level Seattle Center
Thu 10:24:40 PM 47.4800 -121.7220 293° West 297 342 17,000 -50 Descending Seattle Center
Thu 10:25:40 PM 47.5114 -121.8340 295° West 297 342 17,000 50 Level Seattle Center
Thu 10:26:40 PM 47.5450 -121.9390 294° West 297 342 17,100 50 Climbing Seattle Center
Thu 10:27:40 PM 47.5761 -122.0450 294° West 297 342 17,100  Level Seattle Center
Thu 10:28:40 PM 47.6094 -122.1570 293° West 297 342 17,100 -50 Level Seattle Center
Thu 10:29:40 PM 47.6406 -122.2660 294° West 297 342 17,000  Descending Seattle Center
Thu 10:30:40 PM 47.6697 -122.3630 291° West 297 342 17,100 -500 Climbing Seattle Center
Thu 10:31:40 PM 47.6983 -122.4730 295° West 297 342 16,000  Descending Seattle Center
Thu 10:32:40 PM 47.7350 -122.5910 294° West 380 437 17,100 550 Climbing Seattle Center
Thu 10:33:40 PM 47.7658 -122.6950 292° West 324 373 17,100 -50 Level Seattle Center
Thu 10:34:40 PM 47.7944 -122.7980 295° West 291 335 17,000 -50 Descending Seattle Center
Thu 10:35:40 PM 47.8253 -122.8990 319° Northwest 274 315 17,000  Level Seattle Center
Thu 10:36:40 PM 47.8814 -122.9730 341° North 269 310 17,000  Level Seattle Center
Thu 10:37:40 PM 47.9594 -123.0120 313° West 269 310 17,000  Level Seattle Center
Thu 10:38:40 PM 48.0114 -123.0960 286° West 274 315 17,000  Level Seattle Center
Thu 10:39:40 PM 48.0331 -123.2090 283° West 264 304 17,000 50 Level Seattle Center
Thu 10:40:40 PM 48.0489 -123.3090 286° West 264 304 17,100 50 Climbing Seattle Center
Thu 10:41:40 PM 48.0686 -123.4130 288° West 259 298 17,100  Level Seattle Center
Thu 10:42:40 PM 48.0906 -123.5140 278° West 259 298 17,100  Level Seattle Center
Thu 10:43:40 PM 48.0997 -123.6140 187° South 259 298 17,100  Level Seattle Center
Thu 10:44:40 PM 48.0369 -123.6250 106° East 175 201 17,100 -150 Level Seattle Center
Thu 10:45:40 PM 48.0156 -123.5120 95° East 128 147 16,800 -50 Descending Seattle Center
Thu 10:46:40 PM 48.0072 -123.3780 85° East 203 234 17,000 100 Climbing Seattle Center
Thu 10:47:40 PM 48.0158 -123.2320 86° East 288 331 17,000  Level Seattle Center
Thu 10:48:40 PM 48.0222 -123.0750 88° East 341 392 17,000  Level Seattle Center
Thu 10:49:05 PM 48.0244 -122.9940 83° East 377 434 17,000 -300 Level Seattle Center
Thu 10:49:40 PM 48.0306 -122.9200 113° Southeast 361 415 16,700 -689 Descending Seattle Center
Thu 10:50:06 PM 48.0078 -122.8380 135° Southeast 390 449 16,300 -700 Descending Seattle Center
Thu 10:50:40 PM 47.9758 -122.7900 155° Southeast 368 423 16,000 -1,770 Descending Seattle Center
Thu 10:51:07 PM 47.9225 -122.7530 141° Southeast 371 427 14,500 -2,300 Descending Seattle Center
Thu 10:51:40 PM 47.8883 -122.7110 153° Southeast 336 387 13,700 -1,770 Descending Seattle Center
Thu 10:52:08 PM 47.8353 -122.6710 142° Southeast 362 417 12,700 -1,400 Descending Seattle Center
Thu 10:52:40 PM 47.8047 -122.6350 154° Southeast 346 398 12,300 -800 Descending Seattle Center
Thu 10:53:08 PM 47.7597 -122.6020 146° Southeast 328 377 11,900 -800 Descending Seattle Center
Thu 10:53:40 PM 47.7272 -122.5690 153° Southeast 339 390 11,500 -984 Descending Seattle Center
Thu 10:54:09 PM 47.6844 -122.5360 149° Southeast 316 364 10,900 -1,200 Descending Seattle Center
Thu 10:54:40 PM 47.6458 -122.5010 148° Southeast 319 367 10,300 -885 Descending Seattle Center
Thu 10:55:10 PM 47.6069 -122.4650 157° South 308 354 10,000 -300 Descending Seattle Center
Thu 10:55:40 PM 47.5681 -122.4410 158° South 319 367 10,000 -295 Level Seattle Center
Thu 10:56:11 PM 47.5289 -122.4180 157° South 301 346 9,700 -900 Descending Seattle Center
Thu 10:56:40 PM 47.4919 -122.3950 164° South 314 361 9,100 -1,180 Descending Seattle Center
Thu 10:57:12 PM 47.4508 -122.3780 154° Southeast 306 352 8,500 -1,200 Descending Seattle Center
Thu 10:57:40 PM 47.4139 -122.3510 151° Southeast 309 356 7,900 -1,869 Descending Seattle Center
Thu 10:58:13 PM 47.3750 -122.3190 130° Southeast 278 320 6,600 -2,100 Descending Seattle Center
Thu 10:58:40 PM 47.3550 -122.2840 108° East 286 329 5,800 -1,800 Descending Seattle Center
Thu 10:59:13 PM 47.3436 -122.2310 71° East 243 280 4,800 -1,500 Descending Seattle Center
Thu 10:59:40 PM 47.3506 -122.2010 23° Northeast 222 255 4,300 -1,770 Descending Seattle Center
Thu 11:00:14 PM 47.3778 -122.1840 344° North 184 212 3,000 -2,000 Descending Seattle Center
Thu 11:00:40 PM 47.3944 -122.1910 328° Northwest 121 139 2,300 -1,082 Descending Seattle Center
Thu 11:01:15 PM 47.4231 -122.2170 344° North 190 219 1,900 -300 Descending Seattle Center
Thu 11:01:40 PM 47.4394 -122.2240 325° Northwest 125 144 2,000 -590 Climbing Seattle Center
Thu 11:02:16 PM 47.4639 -122.2490 335° Northwest 149 171 1,300 -900 Descending Seattle Center
Thu 11:02:40 PM 47.4742 -122.2560 327° Northwest 125 144 1,100 -689 Descending Seattle Center
Thu 11:03:17 PM 47.4967 -122.2780 345° North 137 158 600 14,900 Descending Seattle Center
Thu 11:03:40 PM 47.5069 -122.2820 330° Northwest 136 157 16,000 11,133 Climbing Seattle Center
Thu 11:04:40 PM 47.5436 -122.3140 325° Northwest 136 157 16,000  Level Seattle Center
Thu 11:05:40 PM 47.5742 -122.3460 324° Northwest 136 157 16,000  Level Seattle Center
Thu 11:06:40 PM 47.6047 -122.3790 325° Northwest 136 157 16,000  Level Seattle Center
Thu 11:07:40 PM 47.6353 -122.4110 325° Northwest 136 157 16,000  Level Seattle Center

Login

Don't have an account? Register now (free) for customized features, flight alerts, and more!